Putnam, Illinois
Current Conditions -  °F | °C
As of 11:15 AM on Saturday 25 Oct 2014 (Local Time) from KC75 Reporting Station
Clear Clear  
Wind Chill: 65°   Ceiling: Unl
Heat Index: 65°   Visibility: 7mi
Dew Point: 55°   Wind: 6mph
Humidity: 71%   Direction: 290°WNW
Pressure: 30.01"   Gusts: NA
Location:  41.18°N, 89.4°W
Report Text: KC75 251615Z AUTO 29005KT 7SM CLR 18/13 A3001 RMK AO2 T01810128
Loading
Personal Weather Stations






























Interactive Weather Map
Tropical Storm Tracking
New forecast layout! Learn more

10-Day Weather Forecast

Advertisements
Track Severe Weather on mobile